createdAt,value
2023-02-22T00:02:13.083Z,7.74
2023-02-22T00:04:40.573Z,7.57
2023-02-22T00:07:08.487Z,7.36
2023-02-22T00:09:35.842Z,7.22
2023-02-22T00:12:03.386Z,7.08
2023-02-22T00:14:30.740Z,6.99
2023-02-22T00:16:59.684Z,6.90
2023-02-22T00:19:30.866Z,6.74
2023-02-22T00:21:58.553Z,6.76
2023-02-22T00:24:26.160Z,6.67
2023-02-22T00:26:57.965Z,6.61
2023-02-22T00:29:26.329Z,6.56
2023-02-22T00:31:54.120Z,6.57
2023-02-22T00:34:24.184Z,6.60
2023-02-22T00:36:51.841Z,6.63
2023-02-22T00:39:19.363Z,6.60
2023-02-22T00:41:46.770Z,6.51
2023-02-22T00:44:14.683Z,6.46
2023-02-22T00:46:42.137Z,6.46
2023-02-22T00:49:09.498Z,6.44
2023-02-22T00:51:36.859Z,6.40
2023-02-22T00:54:05.451Z,6.42
2023-02-22T00:56:34.369Z,6.44
2023-02-22T00:59:01.728Z,6.50
2023-02-22T01:01:31.401Z,6.50
2023-02-22T01:03:59.154Z,6.54
2023-02-22T01:06:26.908Z,6.56
2023-02-22T01:08:54.270Z,6.56
2023-02-22T01:11:22.396Z,6.58
2023-02-22T01:13:49.803Z,6.64
2023-02-22T01:16:17.194Z,6.69
2023-02-22T01:18:44.718Z,6.73
2023-02-22T01:21:12.180Z,6.78
2023-02-22T01:23:45.886Z,6.87
2023-02-22T01:26:13.596Z,6.94
2023-02-22T01:28:40.949Z,6.92
2023-02-22T01:31:08.973Z,6.97
2023-02-22T01:33:36.317Z,7.01
2023-02-22T01:36:03.884Z,7.02
2023-02-22T01:38:31.184Z,7.05
2023-02-22T01:40:58.668Z,6.98
2023-02-22T01:43:30.757Z,6.90
2023-02-22T01:46:02.470Z,6.84
2023-02-22T01:48:44.530Z,6.77
2023-02-22T01:51:23.696Z,6.71
2023-02-22T01:54:09.435Z,6.64
2023-02-22T01:56:45.883Z,6.54
2023-02-22T01:59:14.874Z,6.47
2023-02-22T02:01:44.597Z,6.36
2023-02-22T02:04:25.437Z,6.28
2023-02-22T02:07:02.481Z,6.22
2023-02-22T02:09:53.161Z,6.15
2023-02-22T02:12:23.401Z,6.03
2023-02-22T02:14:52.509Z,5.97
2023-02-22T02:17:23.616Z,5.85
2023-02-22T02:20:13.281Z,5.78
2023-02-22T02:23:00.928Z,5.78
2023-02-22T02:26:22.145Z,5.79
2023-02-22T02:29:55.704Z,5.77
2023-02-22T02:32:48.742Z,5.74
2023-02-22T02:39:28.952Z,5.77
2023-02-22T02:41:59.818Z,5.74
2023-02-22T02:45:02.677Z,5.73
2023-02-22T02:47:42.417Z,5.78
2023-02-22T02:50:14.400Z,5.81
2023-02-22T02:52:44.597Z,5.82
2023-02-22T02:55:13.916Z,5.85
2023-02-22T02:57:42.200Z,5.84
2023-02-22T03:00:25.271Z,5.88
2023-02-22T03:03:07.880Z,5.88
2023-02-22T03:06:16.279Z,5.95
2023-02-22T03:09:20.615Z,6.02
2023-02-22T03:12:03.765Z,6.06
2023-02-22T03:14:46.118Z,6.06
2023-02-22T03:17:45.338Z,6.05
2023-02-22T03:20:43.246Z,6.02
2023-02-22T03:23:28.680Z,6.03
2023-02-22T03:26:08.237Z,6.05
2023-02-22T03:28:43.043Z,6.05
2023-02-22T03:31:21.288Z,6.03
2023-02-22T03:34:24.579Z,6.05
2023-02-22T03:37:03.733Z,6.03
2023-02-22T03:39:33.028Z,6.03
2023-02-22T03:42:08.719Z,6.02
2023-02-22T03:44:40.326Z,5.98
2023-02-22T03:47:18.532Z,5.97
2023-02-22T03:50:00.315Z,5.99
2023-02-22T03:52:27.930Z,5.99
2023-02-22T03:54:55.601Z,5.99
2023-02-22T03:57:35.462Z,6.01
2023-02-22T04:00:10.177Z,6.01
2023-02-22T04:02:41.822Z,6.01
2023-02-22T04:05:14.240Z,5.97
2023-02-22T04:07:43.469Z,5.98
2023-02-22T04:10:15.289Z,5.99
2023-02-22T04:12:43.876Z,5.97
2023-02-22T04:15:18.955Z,5.94
2023-02-22T04:17:46.936Z,5.91
2023-02-22T04:20:19.928Z,5.90
2023-02-22T04:23:00.105Z,5.85
2023-02-22T04:25:29.201Z,5.82
2023-02-22T04:27:57.522Z,5.77
2023-02-22T04:30:36.641Z,5.73
2023-02-22T04:33:06.915Z,5.71
2023-02-22T04:35:35.679Z,5.67
2023-02-22T04:38:04.398Z,5.63
2023-02-22T04:40:33.402Z,5.60
2023-02-22T04:43:01.313Z,5.58
2023-02-22T04:45:29.476Z,5.60
2023-02-22T04:47:56.996Z,5.57
2023-02-22T04:50:24.894Z,5.55
2023-02-22T04:52:52.224Z,5.55
2023-02-22T04:55:19.852Z,5.53
2023-02-22T04:57:47.423Z,5.48
2023-02-22T05:00:21.761Z,5.46
2023-02-22T05:02:51.140Z,5.43
2023-02-22T05:05:21.584Z,5.39
2023-02-22T05:07:50.184Z,5.40
2023-02-22T05:10:17.576Z,5.37
2023-02-22T05:12:44.833Z,5.33
2023-02-22T05:15:21.479Z,5.30
2023-02-22T05:17:49.065Z,5.27
2023-02-22T05:20:23.918Z,5.27
2023-02-22T05:22:52.010Z,5.23
2023-02-22T05:25:20.463Z,5.25
2023-02-22T05:28:04.186Z,5.26
2023-02-22T05:30:35.991Z,5.27
2023-02-22T05:33:03.475Z,5.26
2023-02-22T05:35:30.970Z,5.29
2023-02-22T05:38:01.911Z,5.30
2023-02-22T05:40:30.998Z,5.36
2023-02-22T05:42:59.758Z,5.40
2023-02-22T05:45:28.237Z,5.42
2023-02-22T05:47:56.022Z,5.50
2023-02-22T05:50:24.649Z,5.53
2023-02-22T05:52:54.254Z,5.61
2023-02-22T05:55:24.121Z,5.65
2023-02-22T05:57:52.863Z,5.77
2023-02-22T06:00:31.135Z,5.85
2023-02-22T06:03:00.753Z,5.94
2023-02-22T06:05:29.023Z,6.03
2023-02-22T06:07:58.115Z,6.11
2023-02-22T06:10:26.582Z,6.21
2023-02-22T06:12:54.914Z,6.51
2023-02-22T06:15:25.111Z,7.71
2023-02-22T06:17:53.772Z,8.88
2023-02-22T06:20:24.728Z,9.75
2023-02-22T06:22:56.049Z,10.38
2023-02-22T06:25:27.464Z,10.86
2023-02-22T06:27:54.958Z,11.24
2023-02-22T06:30:25.412Z,11.67
2023-02-22T06:32:53.264Z,12.10
2023-02-22T06:35:21.211Z,12.56
2023-02-22T06:37:48.660Z,13.05
2023-02-22T06:40:16.583Z,13.52
2023-02-22T06:42:44.541Z,13.94
2023-02-22T06:45:11.899Z,14.42
2023-02-22T06:47:43.839Z,14.84
2023-02-22T06:50:27.002Z,15.28
2023-02-22T06:52:55.228Z,15.70
2023-02-22T06:55:27.926Z,16.04
2023-02-22T06:57:55.413Z,16.71
2023-02-22T07:00:26.321Z,17.30
2023-02-22T07:02:54.800Z,17.51
2023-02-22T07:05:24.709Z,17.96
2023-02-22T07:07:54.962Z,17.88
2023-02-22T07:10:26.456Z,17.93
2023-02-22T07:12:54.436Z,18.08
2023-02-22T07:15:24.862Z,18.36
2023-02-22T07:17:52.835Z,18.94
2023-02-22T07:20:21.953Z,19.56
2023-02-22T07:22:49.827Z,20.00
2023-02-22T07:25:17.670Z,20.18
2023-02-22T07:27:45.832Z,20.59
2023-02-22T07:30:25.161Z,20.96
2023-02-22T07:32:55.547Z,21.62
2023-02-22T07:35:30.498Z,22.13
2023-02-22T07:37:58.507Z,22.09
2023-02-22T07:40:27.773Z,22.18
2023-02-22T07:43:09.360Z,23.09
2023-02-22T07:45:36.786Z,23.23
2023-02-22T07:48:06.616Z,23.54
2023-02-22T07:50:36.070Z,23.20
2023-02-22T07:53:08.117Z,22.41
2023-02-22T07:55:35.579Z,23.02
2023-02-22T07:58:08.936Z,23.18
2023-02-22T08:00:40.661Z,23.58
2023-02-22T08:03:11.256Z,23.53
2023-02-22T08:05:41.507Z,22.81
2023-02-22T08:08:09.175Z,21.96
2023-02-22T08:10:36.976Z,21.37
2023-02-22T08:13:05.831Z,20.76
2023-02-22T08:15:39.200Z,20.43
2023-02-22T08:18:12.288Z,20.00
2023-02-22T08:20:43.041Z,19.70
2023-02-22T08:23:13.883Z,20.04
2023-02-22T08:25:41.763Z,19.88
2023-02-22T08:28:16.755Z,19.73
2023-02-22T08:30:44.375Z,20.36
2023-02-22T08:33:15.929Z,20.17
2023-02-22T08:35:43.825Z,20.76
2023-02-22T08:38:37.743Z,21.08
2023-02-22T08:41:06.865Z,21.47
2023-02-22T08:43:34.383Z,21.65
2023-02-22T08:46:01.776Z,21.74
2023-02-22T08:48:29.354Z,21.01
2023-02-22T08:50:56.856Z,21.01
2023-02-22T08:53:24.346Z,21.06
2023-02-22T08:55:52.848Z,21.54
2023-02-22T08:58:20.186Z,21.32
2023-02-22T09:00:47.902Z,21.78
2023-02-22T09:03:15.878Z,21.54
2023-02-22T09:05:44.743Z,21.95
2023-02-22T09:08:12.696Z,21.99
2023-02-22T09:10:40.861Z,21.58
2023-02-22T09:13:08.993Z,21.21
2023-02-22T09:15:36.423Z,21.72
2023-02-22T09:18:08.457Z,22.52
2023-02-22T09:20:36.994Z,22.45
2023-02-22T09:23:06.873Z,22.68
2023-02-22T09:25:38.803Z,23.15
2023-02-22T09:28:06.898Z,23.40
2023-02-22T09:30:36.133Z,23.81
2023-02-22T09:33:14.249Z,23.42
2023-02-22T09:35:47.884Z,23.66
2023-02-22T09:38:26.158Z,23.67
2023-02-22T09:41:03.047Z,23.77
2023-02-22T09:44:00.376Z,24.30
2023-02-22T09:46:37.885Z,24.51
2023-02-22T09:49:21.455Z,24.28
2023-02-22T09:52:06.780Z,24.42
2023-02-22T09:54:51.946Z,23.56
2023-02-22T09:57:28.868Z,23.53
2023-02-22T10:00:13.716Z,23.63
2023-02-22T10:03:12.635Z,23.10
2023-02-22T10:05:46.171Z,23.10
2023-02-22T10:08:18.968Z,23.45
2023-02-22T10:11:00.210Z,24.08
2023-02-22T10:14:02.917Z,24.21
2023-02-22T10:17:06.373Z,24.63
2023-02-22T10:20:28.651Z,24.28
2023-02-22T10:23:27.176Z,24.05
2023-02-22T10:26:17.352Z,24.11
2023-02-22T10:29:02.800Z,24.12
2023-02-22T10:31:43.006Z,24.19
2023-02-22T10:34:20.550Z,24.59
2023-02-22T10:36:50.672Z,23.18
2023-02-22T10:39:36.705Z,23.02
2023-02-22T10:42:08.116Z,22.67
2023-02-22T10:44:37.461Z,23.63
2023-02-22T10:47:12.408Z,24.33
2023-02-22T10:49:46.360Z,23.88
2023-02-22T10:52:34.756Z,24.32
2023-02-22T10:55:15.250Z,24.32
2023-02-22T10:57:50.736Z,24.23
2023-02-22T11:00:37.440Z,24.30
2023-02-22T11:03:19.830Z,23.71
2023-02-22T11:05:48.047Z,23.53
2023-02-22T11:08:21.511Z,23.10
2023-02-22T11:11:06.496Z,23.47
2023-02-22T11:13:39.334Z,23.08
2023-02-22T11:16:28.127Z,23.39
2023-02-22T11:19:20.668Z,23.37
2023-02-22T11:21:54.168Z,23.45
2023-02-22T11:24:24.759Z,22.89
2023-02-22T11:26:59.360Z,21.95
2023-02-22T11:29:36.945Z,21.72
2023-02-22T11:32:15.250Z,21.52
2023-02-22T11:34:42.999Z,20.73
2023-02-22T11:37:19.655Z,21.03
2023-02-22T11:39:47.034Z,21.54
2023-02-22T11:42:28.000Z,21.93
2023-02-22T11:45:21.487Z,21.96
2023-02-22T11:48:00.887Z,21.75
2023-02-22T11:51:10.021Z,21.95
2023-02-22T11:54:28.883Z,21.97
2023-02-22T11:57:22.110Z,22.02
2023-02-22T12:00:27.039Z,21.79
2023-02-22T12:03:06.651Z,21.69
2023-02-22T12:06:10.753Z,21.82
2023-02-22T12:09:05.732Z,21.85
2023-02-22T12:12:19.493Z,21.59
2023-02-22T12:15:29.090Z,21.00
2023-02-22T12:18:42.796Z,20.43
2023-02-22T12:21:18.352Z,20.33
2023-02-22T12:24:07.253Z,20.15
2023-02-22T12:26:42.007Z,20.25
2023-02-22T12:29:39.532Z,20.10
2023-02-22T12:32:19.845Z,20.12
2023-02-22T12:35:05.425Z,20.26
2023-02-22T12:38:05.294Z,20.25
2023-02-22T12:40:48.481Z,20.12
2023-02-22T12:43:24.967Z,19.93
2023-02-22T12:46:06.817Z,19.55
2023-02-22T12:48:49.503Z,19.55
2023-02-22T12:51:35.890Z,19.52
2023-02-22T12:54:37.164Z,19.42
2023-02-22T12:57:37.908Z,18.98
2023-02-22T13:00:31.093Z,19.12
2023-02-22T13:03:19.852Z,19.12
2023-02-22T13:06:13.415Z,19.05
2023-02-22T13:09:05.789Z,18.75
2023-02-22T13:11:57.561Z,18.39
2023-02-22T13:14:55.458Z,18.16
2023-02-22T13:17:51.619Z,18.10
2023-02-22T13:20:41.392Z,18.13
2023-02-22T13:23:15.437Z,18.08
2023-02-22T13:26:08.138Z,18.03
2023-02-22T13:29:04.398Z,17.84
2023-02-22T13:32:02.783Z,17.84
2023-02-22T13:34:52.230Z,17.78
2023-02-22T13:37:49.639Z,17.65
2023-02-22T13:40:53.675Z,17.63
2023-02-22T13:43:48.443Z,17.57
2023-02-22T13:46:53.450Z,17.45
2023-02-22T13:49:34.093Z,17.43
2023-02-22T13:52:08.220Z,17.37
2023-02-22T13:54:46.737Z,17.34
2023-02-22T13:57:26.659Z,17.19
2023-02-22T14:00:15.612Z,17.09
2023-02-22T14:03:13.537Z,17.06
2023-02-22T14:05:41.598Z,17.09
2023-02-22T14:08:33.706Z,17.13
2023-02-22T14:11:12.591Z,17.23
2023-02-22T14:14:00.727Z,17.38
2023-02-22T14:16:31.084Z,17.31
2023-02-22T14:19:14.392Z,17.24
2023-02-22T14:21:58.396Z,17.17
2023-02-22T14:24:25.990Z,17.12
2023-02-22T14:27:03.593Z,16.86
2023-02-22T14:29:31.731Z,16.79
2023-02-22T14:32:10.998Z,16.79
2023-02-22T14:34:49.467Z,16.80
2023-02-22T14:37:28.843Z,16.88
2023-02-22T14:40:15.563Z,16.78
2023-02-22T14:42:51.654Z,16.73
2023-02-22T14:45:33.284Z,16.68
2023-02-22T14:48:39.293Z,16.65
2023-02-22T14:51:25.136Z,16.65
2023-02-22T14:54:25.646Z,16.61
2023-02-22T14:57:14.625Z,16.55
2023-02-22T15:00:08.277Z,16.47
2023-02-22T15:02:41.480Z,16.20
2023-02-22T15:05:15.363Z,16.09
2023-02-22T15:07:56.689Z,16.06
2023-02-22T15:10:45.988Z,15.99
2023-02-22T15:13:25.066Z,15.87
2023-02-22T15:16:01.820Z,15.73
2023-02-22T15:18:49.857Z,15.65
2023-02-22T15:21:23.539Z,15.58
2023-02-22T15:23:59.362Z,15.45
2023-02-22T15:26:51.995Z,15.35
2023-02-22T15:29:36.964Z,15.30
2023-02-22T15:32:29.717Z,15.23
2023-02-22T15:35:13.364Z,15.10
2023-02-22T15:37:40.941Z,15.00
2023-02-22T15:40:14.669Z,14.88
2023-02-22T15:42:58.302Z,14.80
2023-02-22T15:45:28.117Z,14.63
2023-02-22T15:47:58.715Z,14.55
2023-02-22T15:50:27.404Z,14.42
2023-02-22T15:53:02.640Z,14.28
2023-02-22T15:55:35.544Z,14.15
2023-02-22T15:58:22.403Z,14.04
2023-02-22T16:01:11.094Z,13.88
2023-02-22T16:03:47.876Z,13.74
2023-02-22T16:06:33.549Z,13.66
2023-02-22T16:09:17.636Z,13.57
2023-02-22T16:11:47.243Z,13.39
2023-02-22T16:14:39.853Z,13.23
2023-02-22T16:17:25.694Z,13.15
2023-02-22T16:19:53.513Z,13.05
2023-02-22T16:22:39.521Z,12.99
2023-02-22T16:25:18.757Z,12.96
2023-02-22T16:28:01.396Z,12.89
2023-02-22T16:30:41.179Z,12.84
2023-02-22T16:33:13.819Z,12.75
2023-02-22T16:35:51.670Z,12.60
2023-02-22T16:38:21.187Z,12.50
2023-02-22T16:40:53.870Z,12.34
2023-02-22T16:43:32.862Z,12.22
2023-02-22T16:46:02.312Z,12.09
2023-02-22T16:48:32.921Z,12.02
2023-02-22T16:51:10.844Z,11.98
2023-02-22T16:53:38.291Z,11.93
2023-02-22T16:56:11.725Z,11.90
2023-02-22T16:58:40.941Z,11.96
2023-02-22T17:01:09.508Z,11.78
2023-02-22T17:03:36.991Z,11.69
2023-02-22T17:06:05.175Z,11.64
2023-02-22T17:08:32.520Z,11.55
2023-02-22T17:11:00.663Z,11.45
2023-02-22T17:13:29.356Z,11.42
2023-02-22T17:15:57.971Z,11.38
2023-02-22T17:18:28.952Z,11.37
2023-02-22T17:20:56.799Z,11.40
2023-02-22T17:23:24.993Z,11.47
2023-02-22T17:26:00.384Z,11.48
2023-02-22T17:28:28.459Z,11.34
2023-02-22T17:31:01.962Z,11.14
2023-02-22T17:33:33.587Z,11.03
2023-02-22T17:36:03.516Z,10.89
2023-02-22T17:38:31.617Z,10.76
2023-02-22T17:41:01.255Z,10.64
2023-02-22T17:43:29.480Z,10.55
2023-02-22T17:45:57.150Z,10.44
2023-02-22T17:48:25.859Z,10.33
2023-02-22T17:50:53.829Z,10.17
2023-02-22T17:53:24.681Z,10.08
2023-02-22T17:55:52.482Z,10.01
2023-02-22T17:58:20.191Z,9.96
2023-02-22T18:00:50.397Z,9.91
2023-02-22T18:03:25.677Z,9.89
2023-02-22T18:05:57.936Z,9.86
2023-02-22T18:08:28.986Z,9.80
2023-02-22T18:10:57.111Z,9.73
2023-02-22T18:13:27.467Z,9.68
2023-02-22T18:16:02.893Z,9.65
2023-02-22T18:18:30.303Z,9.60
2023-02-22T18:21:01.845Z,9.58
2023-02-22T18:23:32.121Z,9.58
2023-02-22T18:26:11.391Z,9.55
2023-02-22T18:28:40.150Z,9.53
2023-02-22T18:31:16.778Z,9.49
2023-02-22T18:33:47.555Z,9.42
2023-02-22T18:36:16.699Z,9.36
2023-02-22T18:38:44.769Z,9.31
2023-02-22T18:41:16.158Z,9.32
2023-02-22T18:43:44.783Z,9.35
2023-02-22T18:46:21.995Z,9.43
2023-02-22T18:48:54.578Z,9.46
2023-02-22T18:51:23.233Z,9.43
2023-02-22T18:53:54.907Z,9.39
2023-02-22T18:56:22.740Z,9.28
2023-02-22T18:58:54.165Z,9.24
2023-02-22T19:01:22.469Z,9.20
2023-02-22T19:03:51.715Z,9.17
2023-02-22T19:06:22.528Z,9.17
2023-02-22T19:08:50.966Z,9.08
2023-02-22T19:11:23.022Z,9.05
2023-02-22T19:13:54.058Z,9.01
2023-02-22T19:16:24.232Z,8.96
2023-02-22T19:18:57.239Z,8.91
2023-02-22T19:21:27.930Z,8.88
2023-02-22T19:24:01.730Z,8.93
2023-02-22T19:26:29.645Z,8.93
2023-02-22T19:28:59.573Z,8.91
2023-02-22T19:31:33.938Z,8.85
2023-02-22T19:34:08.984Z,8.70
2023-02-22T19:36:45.398Z,8.62
2023-02-22T19:39:14.909Z,8.55
2023-02-22T19:41:43.239Z,8.48
2023-02-22T19:44:12.249Z,8.48
2023-02-22T19:46:39.822Z,8.53
2023-02-22T19:49:07.766Z,8.64
2023-02-22T19:51:35.270Z,8.62
2023-02-22T19:54:06.339Z,8.60
2023-02-22T19:56:35.274Z,8.59
2023-02-22T19:59:13.654Z,8.50
2023-02-22T20:01:44.324Z,8.49
2023-02-22T20:04:18.190Z,8.45
2023-02-22T20:06:47.830Z,8.41
2023-02-22T20:09:19.940Z,8.45
2023-02-22T20:11:48.390Z,8.43
2023-02-22T20:14:20.057Z,8.42
2023-02-22T20:16:47.582Z,8.38
2023-02-22T20:19:14.974Z,8.35
2023-02-22T20:21:42.424Z,8.39
2023-02-22T20:24:14.878Z,8.45
2023-02-22T20:26:42.885Z,8.46
2023-02-22T20:29:12.055Z,8.42
2023-02-22T20:31:41.566Z,8.35
2023-02-22T20:34:10.220Z,8.24
2023-02-22T20:36:40.377Z,8.16
2023-02-22T20:39:13.382Z,8.11
2023-02-22T20:41:44.604Z,8.08
2023-02-22T20:44:18.095Z,8.04
2023-02-22T20:46:47.196Z,7.99
2023-02-22T20:49:18.782Z,7.97
2023-02-22T20:51:48.263Z,7.86
2023-02-22T20:54:17.748Z,7.81
2023-02-22T20:56:47.498Z,7.77
2023-02-22T20:59:19.124Z,7.71
2023-02-22T21:01:49.416Z,7.66
2023-02-22T21:04:17.656Z,7.63
2023-02-22T21:06:46.685Z,7.63
2023-02-22T21:09:20.192Z,7.66
2023-02-22T21:11:47.865Z,7.69
2023-02-22T21:14:19.911Z,7.71
2023-02-22T21:16:50.249Z,7.71
2023-02-22T21:19:25.746Z,7.66
2023-02-22T21:21:58.491Z,7.56
2023-02-22T21:24:28.198Z,7.49
2023-02-22T21:26:59.256Z,7.45
2023-02-22T21:29:28.895Z,7.52
2023-02-22T21:31:56.767Z,7.56
2023-02-22T21:34:25.780Z,7.56
2023-02-22T21:36:53.366Z,7.56
2023-02-22T21:39:22.521Z,7.56
2023-02-22T21:41:52.010Z,7.57
2023-02-22T21:44:20.517Z,7.55
2023-02-22T21:46:50.674Z,7.53
2023-02-22T21:49:22.632Z,7.55
2023-02-22T21:51:51.807Z,7.56
2023-02-22T21:54:20.853Z,7.56
2023-02-22T21:56:48.805Z,7.56
2023-02-22T21:59:20.065Z,7.55
2023-02-22T22:01:57.433Z,7.57
2023-02-22T22:04:32.313Z,7.55
2023-02-22T22:07:01.511Z,7.52
2023-02-22T22:09:33.144Z,7.47
2023-02-22T22:12:05.490Z,7.43
2023-02-22T22:14:34.841Z,7.40
2023-02-22T22:17:05.836Z,7.36
2023-02-22T22:19:40.440Z,7.39
2023-02-22T22:22:08.681Z,7.36
2023-02-22T22:24:36.688Z,7.35
2023-02-22T22:27:06.477Z,7.26
2023-02-22T22:29:34.573Z,7.18
2023-02-22T22:32:03.450Z,7.11
2023-02-22T22:34:31.069Z,7.05
2023-02-22T22:36:58.492Z,7.02
2023-02-22T22:39:26.990Z,6.98
2023-02-22T22:41:54.771Z,6.87
2023-02-22T22:44:22.493Z,6.81
2023-02-22T22:46:54.770Z,6.78
2023-02-22T22:49:25.133Z,6.74
2023-02-22T22:51:53.459Z,6.70
2023-02-22T22:54:20.881Z,6.67
2023-02-22T22:56:48.217Z,6.61
2023-02-22T22:59:15.631Z,6.60
2023-02-22T23:01:44.768Z,6.61
2023-02-22T23:04:17.213Z,6.66
2023-02-22T23:06:50.702Z,6.69
2023-02-22T23:09:27.987Z,6.69
2023-02-22T23:12:08.765Z,6.64
2023-02-22T23:14:44.102Z,6.70
2023-02-22T23:17:16.264Z,6.67
2023-02-22T23:19:45.325Z,6.64
2023-02-22T23:22:16.153Z,6.60
2023-02-22T23:24:44.567Z,6.64
2023-02-22T23:27:12.553Z,6.67
2023-02-22T23:29:42.641Z,6.71
2023-02-22T23:32:10.425Z,6.69
2023-02-22T23:34:41.454Z,6.69
2023-02-22T23:37:10.867Z,6.69
2023-02-22T23:39:38.767Z,6.63
2023-02-22T23:42:08.883Z,6.57
2023-02-22T23:44:36.553Z,6.42
2023-02-22T23:47:04.223Z,6.33
2023-02-22T23:49:38.003Z,6.22
2023-02-22T23:52:08.190Z,6.08
2023-02-22T23:54:40.336Z,5.98
2023-02-22T23:57:08.868Z,5.87
2023-02-22T23:59:40.408Z,5.78
